Time;durP1;ratioP1;P1;durP2;ratioP2;P2;SDS_P1;SDS_P2;PMS_P1;PMS_P2;Temp;Humidity;BMP_temperature;BMP_pressure;BME280_temperature;BME280_humidity;BME280_pressure;Samples;Min_cycle;Max_cycle;Signal;HPM_P1;HPM_P2
2021/10/03 00:00:48;;;;;;;7.85;6.15;;;;;;;5.51;95.12;93883.94;5031962;28;20140;-76
2021/10/03 00:03:18;;;;;;;9.63;6.43;;;;;;;5.40;95.46;93878.22;5032033;28;20128;-77
2021/10/03 00:05:48;;;;;;;9.35;6.63;;;;;;;5.44;95.49;93888.88;5032154;28;20160;-77
2021/10/03 00:08:16;;;;;;;9.57;6.53;;;;;;;5.32;96.16;93889.19;5032223;28;20042;-77
2021/10/03 00:10:43;;;;;;;10.25;7.05;;;;;;;5.30;96.07;93888.56;5031916;28;20515;-77
2021/10/03 00:13:10;;;;;;;8.32;6.18;;;;;;;5.22;95.15;93880.91;5032124;28;20099;-76
2021/10/03 00:15:38;;;;;;;10.75;5.72;;;;;;;5.15;95.57;93877.44;5031263;28;20092;-77
2021/10/03 00:18:07;;;;;;;8.57;5.47;;;;;;;5.13;94.89;93874.25;5031913;28;20069;-76
2021/10/03 00:20:36;;;;;;;6.60;5.00;;;;;;;5.12;95.04;93875.19;5031984;28;20424;-76
2021/10/03 00:23:03;;;;;;;7.35;5.72;;;;;;;5.04;94.76;93876.78;5031730;28;20050;-76
2021/10/03 00:25:30;;;;;;;7.95;6.38;;;;;;;4.93;95.64;93872.81;5031865;28;20451;-76
2021/10/03 00:27:58;;;;;;;8.05;5.57;;;;;;;4.97;95.02;93880.94;5031905;28;20045;-76
2021/10/03 00:30:25;;;;;;;7.50;5.20;;;;;;;4.92;94.61;93883.16;5031638;28;20053;-76
2021/10/03 00:32:52;;;;;;;8.43;4.60;;;;;;;4.66;94.95;93851.78;5031400;28;20405;-76
2021/10/03 00:35:20;;;;;;;9.10;5.47;;;;;;;4.77;95.65;93877.88;5031467;28;20096;-76
2021/10/03 00:37:48;;;;;;;7.65;5.50;;;;;;;4.78;96.09;93874.38;5031529;28;20496;-76
2021/10/03 00:40:15;;;;;;;7.75;5.88;;;;;;;4.74;96.08;93873.09;5031289;28;20056;-76
2021/10/03 00:42:43;;;;;;;10.38;6.53;;;;;;;4.55;97.02;93857.94;5031621;28;20045;-76
2021/10/03 00:45:13;;;;;;;17.00;10.05;;;;;;;4.65;97.06;93874.84;5031264;28;20820;-76
2021/10/03 00:47:40;;;;;;;16.08;10.50;;;;;;;4.61;97.20;93874.34;5031654;28;20091;-77
2021/10/03 00:50:09;;;;;;;17.17;9.75;;;;;;;4.50;97.57;93870.34;5031225;28;20541;-77
2021/10/03 00:52:36;;;;;;;16.48;10.32;;;;;;;4.45;98.83;93872.59;5031544;28;20124;-77
2021/10/03 00:55:05;;;;;;;14.88;9.95;;;;;;;4.44;99.56;93870.97;5031056;28;20053;-77
2021/10/03 00:57:32;;;;;;;12.48;8.10;;;;;;;4.38;99.61;93869.84;5031300;28;20048;-77
2021/10/03 00:59:59;;;;;;;13.85;8.23;;;;;;;4.47;99.32;93863.03;5031013;28;20100;-77
2021/10/03 01:02:26;;;;;;;11.48;7.82;;;;;;;4.39;100.00;93871.44;5031268;28;21110;-77
2021/10/03 01:04:53;;;;;;;10.70;7.35;;;;;;;4.27;100.00;93850.56;5031101;28;20053;-77
2021/10/03 01:07:20;;;;;;;10.40;7.88;;;;;;;4.33;100.00;93861.88;5031124;28;20092;-77
2021/10/03 01:09:47;;;;;;;8.57;6.97;;;;;;;4.33;100.00;93859.34;5030834;28;20057;-77
2021/10/03 01:12:15;;;;;;;11.38;7.18;;;;;;;4.22;100.00;93869.81;5030720;28;20045;-77
2021/10/03 01:14:42;;;;;;;10.80;6.85;;;;;;;4.22;100.00;93869.81;5031064;28;20463;-76
2021/10/03 01:17:08;;;;;;;10.20;6.78;;;;;;;4.25;100.00;93877.09;5030818;28;20045;-76
2021/10/03 01:19:37;;;;;;;10.32;6.88;;;;;;;4.36;100.00;93868.41;5030994;28;20049;-76
2021/10/03 01:22:05;;;;;;;9.88;6.72;;;;;;;4.35;99.49;93864.28;5030968;28;20512;-77
2021/10/03 01:24:33;;;;;;;8.88;6.50;;;;;;;4.25;99.46;93866.94;5030500;28;20520;-76
2021/10/03 01:27:01;;;;;;;9.60;7.28;;;;;;;4.24;100.00;93860.25;5030300;28;20580;-76
2021/10/03 01:29:28;;;;;;;9.35;6.20;;;;;;;4.17;100.00;93846.56;5030797;28;20441;-76
2021/10/03 01:31:55;;;;;;;11.05;6.93;;;;;;;4.38;99.56;93864.75;5030415;28;20092;-76
2021/10/03 01:34:22;;;;;;;10.07;6.47;;;;;;;4.38;99.02;93869.84;5030416;28;20053;-76
2021/10/03 01:36:49;;;;;;;9.90;6.05;;;;;;;4.19;99.05;93844.66;5030613;28;20080;-76
2021/10/03 01:39:18;;;;;;;10.20;6.80;;;;;;;4.42;98.91;93860.16;5030520;28;20053;-76
2021/10/03 01:41:46;;;;;;;8.65;6.25;;;;;;;4.41;97.44;93856.81;5030532;28;20045;-76
2021/10/03 01:44:13;;;;;;;9.75;6.05;;;;;;;4.37;97.75;93852.19;5030323;28;20091;-76
2021/10/03 01:46:40;;;;;;;7.35;5.80;;;;;;;4.23;97.91;93848.50;5030472;28;20045;-77
2021/10/03 01:49:07;;;;;;;9.10;6.85;;;;;;;4.17;98.53;93861.84;5030095;28;20053;-76
2021/10/03 01:51:34;;;;;;;10.70;7.10;;;;;;;4.12;98.82;93847.81;5030183;28;20053;-76
2021/10/03 01:54:01;;;;;;;9.40;6.45;;;;;;;4.15;99.27;93854.34;5030054;28;20049;-76
2021/10/03 01:56:31;;;;;;;8.07;6.32;;;;;;;4.04;98.65;93840.19;5029991;28;20049;-76
2021/10/03 02:01:47;;;;;;;8.32;6.05;;;;;;;4.11;99.64;93842.88;5029808;28;20094;-76
2021/10/03 02:04:15;;;;;;;9.48;6.38;;;;;;;4.07;99.54;93842.41;5030002;28;20473;-76
2021/10/03 02:06:43;;;;;;;9.52;6.20;;;;;;;3.98;99.70;93828.88;5030161;28;20450;-76
2021/10/03 02:09:12;;;;;;;8.48;6.40;;;;;;;4.07;99.62;93831.47;5029889;28;20053;-76
2021/10/03 02:11:43;;;;;;;11.00;6.07;;;;;;;4.01;100.00;93831.13;5030030;28;20049;-76
2021/10/03 02:14:10;;;;;;;8.80;6.63;;;;;;;3.99;99.70;93824.59;5029963;28;20045;-76
2021/10/03 02:16:37;;;;;;;8.52;5.80;;;;;;;4.09;99.21;93827.00;5029992;28;20073;-76
2021/10/03 02:19:04;;;;;;;9.00;5.93;;;;;;;4.08;98.30;93826.19;5029963;28;20053;-76
2021/10/03 02:21:32;;;;;;;8.73;5.70;;;;;;;4.04;97.55;93824.94;5029389;28;20068;-76
2021/10/03 02:23:59;;;;;;;8.25;5.50;;;;;;;4.02;98.22;93831.91;5029670;28;20390;-76
2021/10/03 02:26:26;;;;;;;9.20;5.78;;;;;;;3.84;98.77;93811.69;5029571;28;20049;-76
2021/10/03 02:28:54;;;;;;;8.52;5.88;;;;;;;3.97;99.23;93834.09;5029301;28;20053;-76
2021/10/03 02:31:21;;;;;;;9.57;5.60;;;;;;;3.94;98.93;93831.88;5029605;28;20108;-76
2021/10/03 02:33:50;;;;;;;7.07;5.22;;;;;;;3.88;98.96;93839.16;5029661;28;20072;-76
2021/10/03 02:36:19;;;;;;;11.10;5.53;;;;;;;3.80;99.49;93845.97;5029397;28;20562;-76
2021/10/03 02:38:46;;;;;;;7.85;5.82;;;;;;;3.80;99.63;93849.28;5028708;28;20045;-76
2021/10/03 02:41:14;;;;;;;8.80;5.78;;;;;;;3.71;99.84;93848.44;5029091;28;20452;-76
2021/10/03 02:43:44;;;;;;;7.55;6.00;;;;;;;3.70;100.00;93848.63;5029328;28;20042;-76
2021/10/03 02:46:13;;;;;;;8.07;5.88;;;;;;;3.67;100.00;93844.63;5029079;28;20057;-76
2021/10/03 02:48:40;;;;;;;8.23;5.70;;;;;;;3.70;100.00;93848.63;5029211;28;20053;-76
2021/10/03 02:51:08;;;;;;;7.38;6.18;;;;;;;3.69;100.00;93857.16;5029510;28;20046;-76
2021/10/03 02:53:35;;;;;;;8.13;5.90;;;;;;;3.46;100.00;93834.81;5029106;28;20099;-76
2021/10/03 02:56:02;;;;;;;11.13;7.32;;;;;;;3.52;100.00;93854.53;5029414;28;20049;-75
2021/10/03 02:58:29;;;;;;;10.20;6.70;;;;;;;3.46;100.00;93845.78;5029184;28;20045;-75
2021/10/03 03:00:56;;;;;;;9.70;6.45;;;;;;;3.54;100.00;93856.94;5029116;28;20099;-76
2021/10/03 03:03:24;;;;;;;9.52;6.65;;;;;;;3.58;100.00;93850.63;5029430;28;20111;-76
2021/10/03 03:05:51;;;;;;;8.15;6.25;;;;;;;3.52;100.00;93846.13;5028980;28;20061;-76
2021/10/03 03:08:18;;;;;;;9.57;6.07;;;;;;;3.61;100.00;93851.09;5029418;28;20053;-75
2021/10/03 03:10:45;;;;;;;9.55;6.43;;;;;;;3.56;100.00;93845.69;5029322;28;20046;-76
2021/10/03 03:13:12;;;;;;;9.15;6.97;;;;;;;3.63;99.98;93850.97;5028968;28;20550;-76
2021/10/03 03:15:39;;;;;;;10.77;7.20;;;;;;;3.58;100.00;93850.63;5029304;28;20058;-76
2021/10/03 03:18:06;;;;;;;9.60;7.13;;;;;;;3.64;100.00;93844.13;5029334;28;20057;-76
2021/10/03 03:20:34;;;;;;;12.07;7.43;;;;;;;3.63;99.91;93848.41;5029059;28;20480;-76
2021/10/03 03:23:01;;;;;;;10.07;7.03;;;;;;;3.67;99.76;93851.44;5029331;28;20095;-76
2021/10/03 03:25:27;;;;;;;9.85;7.30;;;;;;;3.40;99.73;93810.84;5029139;28;20072;-76
2021/10/03 03:27:54;;;;;;;10.57;6.95;;;;;;;3.67;99.52;93843.81;5028690;28;20515;-76
2021/10/03 03:30:21;;;;;;;12.07;6.88;;;;;;;3.52;99.46;93823.28;5028835;28;20398;-76
2021/10/03 03:32:48;;;;;;;9.63;6.32;;;;;;;3.55;99.77;93833.94;5025735;28;20044;-76
2021/10/03 03:35:15;;;;;;;9.43;6.05;;;;;;;3.59;99.36;93829.34;5027278;28;20051;-76
2021/10/03 03:37:43;;;;;;;10.00;6.57;;;;;;;3.55;99.30;93840.75;5028278;28;20456;-76
2021/10/03 03:40:14;;;;;;;8.52;6.22;;;;;;;3.53;99.23;93843.44;5028613;28;20390;-76
2021/10/03 03:42:41;;;;;;;9.45;6.28;;;;;;;3.43;99.11;93827.50;5029067;28;20053;-75
2021/10/03 03:45:09;;;;;;;10.43;6.95;;;;;;;3.47;99.89;93839.75;5028947;28;20589;-75
2021/10/03 03:47:36;;;;;;;10.43;6.57;;;;;;;3.44;99.52;93837.53;5028613;28;20385;-76
2021/10/03 03:50:05;;;;;;;9.07;6.30;;;;;;;3.48;99.75;93843.88;5029286;28;20060;-75
2021/10/03 03:52:31;;;;;;;8.63;6.43;;;;;;;3.40;100.00;93827.81;5032038;28;20056;-75
2021/10/03 03:55:00;;;;;;;10.57;6.57;;;;;;;3.43;99.73;93837.69;5032257;28;20447;-76
2021/10/03 03:57:26;;;;;;;9.32;6.47;;;;;;;3.40;99.32;93828.63;5036077;28;20500;-76
2021/10/03 03:59:53;;;;;;;10.38;6.88;;;;;;;3.35;99.82;93830.81;5035629;28;20049;-76
2021/10/03 04:02:20;;;;;;;11.73;8.02;;;;;;;3.36;100.00;93840.00;5032241;28;20052;-76
2021/10/03 04:04:47;;;;;;;10.50;7.18;;;;;;;3.36;100.00;93841.75;5037829;28;20045;-76
2021/10/03 04:07:14;;;;;;;11.93;7.20;;;;;;;3.31;99.33;93837.94;5051828;28;20049;-76
2021/10/03 04:09:40;;;;;;;11.48;7.07;;;;;;;3.38;99.19;93838.09;5048322;28;20059;-76
2021/10/03 04:12:09;;;;;;;10.27;6.18;;;;;;;3.25;99.29;93830.09;5051795;28;20052;-76
2021/10/03 04:14:36;;;;;;;9.50;6.30;;;;;;;3.34;98.26;93844.44;5042355;28;20045;-76
2021/10/03 04:17:03;;;;;;;10.60;6.88;;;;;;;3.24;98.52;93846.28;5032095;28;20038;-75
2021/10/03 04:19:30;;;;;;;8.80;6.93;;;;;;;3.07;99.61;93841.09;5032008;28;20405;-76
2021/10/03 04:21:56;;;;;;;8.73;7.00;;;;;;;3.01;100.00;93844.22;5031570;28;20049;-76
2021/10/03 04:24:23;;;;;;;11.60;7.18;;;;;;;3.09;100.00;93856.97;5031906;28;20049;-75
2021/10/03 04:26:50;;;;;;;9.00;6.35;;;;;;;2.98;100.00;93857.19;5035969;28;20455;-76
2021/10/03 04:29:18;;;;;;;9.90;7.10;;;;;;;2.90;100.00;93857.91;5051787;28;20048;-76
2021/10/03 04:31:45;;;;;;;7.18;6.00;;;;;;;2.89;100.00;93844.44;5032889;28;20045;-76
2021/10/03 04:34:12;;;;;;;7.75;5.88;;;;;;;3.04;100.00;93864.22;5031317;28;20045;-77
2021/10/03 04:36:39;;;;;;;9.65;7.03;;;;;;;2.90;100.00;93842.69;5031745;28;20073;-77
2021/10/03 04:39:06;;;;;;;10.07;7.57;;;;;;;3.07;100.00;93863.94;5031368;28;20053;-77
2021/10/03 04:41:33;;;;;;;13.18;8.25;;;;;;;3.02;100.00;93861.03;5031182;28;20053;-77
2021/10/03 04:44:00;;;;;;;9.57;7.07;;;;;;;3.15;100.00;93860.66;5031244;28;20049;-77
2021/10/03 04:46:28;;;;;;;8.65;5.70;;;;;;;3.16;100.00;93870.66;5031572;28;20045;-77
2021/10/03 04:48:55;;;;;;;10.00;6.57;;;;;;;3.04;100.00;93852.34;5031124;28;20046;-77
2021/10/03 04:51:22;;;;;;;8.82;6.72;;;;;;;2.89;100.00;93834.28;5031550;28;20049;-78
2021/10/03 04:53:48;;;;;;;10.68;5.90;;;;;;;3.10;100.00;93862.84;5031302;28;20489;-77
2021/10/03 04:56:15;;;;;;;7.97;6.03;;;;;;;3.02;100.00;93859.28;5031123;28;20048;-77
2021/10/03 04:58:42;;;;;;;10.52;6.20;;;;;;;3.04;100.00;93864.22;5031105;28;20049;-77
2021/10/03 05:01:11;;;;;;;10.70;6.97;;;;;;;3.07;100.00;93874.88;5031074;28;20065;-77
2021/10/03 05:03:39;;;;;;;11.85;8.02;;;;;;;3.07;100.00;93879.16;5036920;28;20041;-77
2021/10/03 05:06:07;;;;;;;12.50;10.25;;;;;;;3.13;100.00;93880.31;5050903;28;20514;-76
2021/10/03 05:08:35;;;;;;;14.20;10.90;;;;;;;3.06;100.00;93872.50;5051124;28;20048;-76
2021/10/03 05:11:02;;;;;;;14.40;10.95;;;;;;;3.20;100.00;93886.41;5050660;28;20135;-76
2021/10/03 05:13:29;;;;;;;13.63;10.20;;;;;;;3.15;100.00;93869.06;5051074;28;20044;-76
2021/10/03 05:15:56;;;;;;;15.93;10.68;;;;;;;3.30;100.00;93878.69;5050733;28;20140;-76
2021/10/03 05:18:23;;;;;;;15.98;10.05;;;;;;;3.36;100.00;93887.44;5050658;28;20413;-76
2021/10/03 05:20:51;;;;;;;13.50;9.75;;;;;;;3.40;100.00;93893.84;5049040;28;20049;-76
2021/10/03 05:23:19;;;;;;;14.30;9.07;;;;;;;3.42;100.00;93891.97;5030913;28;20057;-76
2021/10/03 05:25:46;;;;;;;11.00;8.60;;;;;;;3.47;100.00;93892.28;5030460;28;20551;-76
2021/10/03 05:28:13;;;;;;;12.40;9.63;;;;;;;3.54;100.00;93900.94;5030298;28;20053;-76
2021/10/03 05:30:40;;;;;;;13.30;9.80;;;;;;;3.58;100.00;93896.34;5027349;28;20052;-76
2021/10/03 05:33:07;;;;;;;15.73;10.35;;;;;;;3.61;100.00;93899.38;5028702;28;20060;-76
2021/10/03 05:35:34;;;;;;;12.20;9.52;;;;;;;3.73;100.00;93910.09;5029574;28;20053;-76
2021/10/03 05:38:02;;;;;;;13.20;9.13;;;;;;;3.79;100.00;93915.53;5030164;28;20501;-76
2021/10/03 05:40:29;;;;;;;10.38;8.50;;;;;;;3.83;100.00;93904.09;5030433;28;20045;-76
2021/10/03 05:42:56;;;;;;;11.75;9.27;;;;;;;3.97;100.00;93912.91;5030206;28;20095;-76
2021/10/03 05:45:22;;;;;;;12.38;9.32;;;;;;;3.96;100.00;93896.88;5030420;28;20096;-76
2021/10/03 05:47:49;;;;;;;11.90;9.00;;;;;;;4.13;100.00;93912.19;5030111;28;20825;-76
2021/10/03 05:50:16;;;;;;;11.48;8.70;;;;;;;4.24;100.00;93911.94;5030399;28;20056;-76
2021/10/03 05:52:43;;;;;;;13.10;8.27;;;;;;;4.39;100.00;93909.59;5030141;28;20513;-76
2021/10/03 05:55:11;;;;;;;12.55;8.32;;;;;;;4.53;100.00;93904.84;5030153;28;20064;-76
2021/10/03 05:57:38;;;;;;;15.50;9.32;;;;;;;4.58;99.68;93886.59;5030200;28;20049;-76
2021/10/03 06:00:06;;;;;;;11.93;8.73;;;;;;;4.80;99.46;93908.09;5030224;28;20458;-76
2021/10/03 06:02:33;;;;;;;12.70;8.75;;;;;;;4.98;99.09;93902.06;5029521;28;20061;-76
2021/10/03 06:05:00;;;;;;;13.82;9.75;;;;;;;5.13;98.58;93897.19;5047568;28;20057;-76
2021/10/03 06:07:29;;;;;;;13.43;9.52;;;;;;;5.31;98.85;93897.00;5049980;28;20041;-76
2021/10/03 06:09:56;;;;;;;15.68;8.27;;;;;;;5.44;98.80;93902.41;5049463;28;20771;-76
2021/10/03 06:12:24;;;;;;;18.05;12.43;;;;;;;5.60;98.22;93893.94;5049521;28;20041;-76
2021/10/03 06:14:51;;;;;;;13.73;9.57;;;;;;;5.78;97.85;93890.41;5040682;28;20041;-76
2021/10/03 06:17:18;;;;;;;14.27;9.10;;;;;;;5.92;97.98;93891.50;5029854;28;20398;-76
2021/10/03 06:19:45;;;;;;;15.40;10.48;;;;;;;6.13;99.50;93892.75;5029437;28;20050;-77
2021/10/03 06:22:13;;;;;;;40.28;26.45;;;;;;;6.28;96.76;93891.09;5029604;28;20053;-76
2021/10/03 06:24:40;;;;;;;28.25;19.40;;;;;;;6.35;97.87;93875.13;5029793;28;20068;-76
2021/10/03 06:27:07;;;;;;;27.73;18.20;;;;;;;6.55;96.80;93881.41;5029488;28;20099;-76
2021/10/03 06:29:35;;;;;;;27.80;17.77;;;;;;;6.73;95.24;93884.66;5029922;28;20049;-76
2021/10/03 06:32:02;;;;;;;18.13;11.70;;;;;;;6.62;98.34;93883.28;5029308;28;20045;-77
2021/10/03 06:34:29;;;;;;;18.52;11.75;;;;;;;6.84;97.31;93879.16;5029610;28;20072;-76
2021/10/03 06:36:56;;;;;;;20.70;12.15;;;;;;;6.89;98.80;93878.66;5029329;28;20054;-77
2021/10/03 06:39:23;;;;;;;20.52;11.75;;;;;;;6.82;98.75;93853.78;5029329;28;20057;-77
2021/10/03 06:41:49;;;;;;;18.63;11.40;;;;;;;7.16;99.21;93879.09;5029274;28;20045;-77
2021/10/03 06:44:16;;;;;;;18.13;10.93;;;;;;;7.38;95.48;93885.16;5029497;28;20083;-76
2021/10/03 06:46:45;;;;;;;17.52;11.00;;;;;;;7.28;97.77;93877.72;5029615;28;20531;-77
2021/10/03 06:49:11;;;;;;;18.67;11.30;;;;;;;7.60;93.92;93885.28;5029292;28;20053;-76
2021/10/03 06:51:42;;;;;;;17.05;10.82;;;;;;;7.81;94.62;93887.16;5029340;28;20049;-77
2021/10/03 06:54:09;;;;;;;16.42;9.13;;;;;;;7.94;94.21;93878.06;5029162;28;20100;-77
2021/10/03 06:56:36;;;;;;;16.38;9.48;;;;;;;8.17;93.27;93880.53;5029467;28;20057;-77
2021/10/03 06:59:03;;;;;;;19.13;10.90;;;;;;;8.16;92.32;93889.19;5029491;28;20045;-76
2021/10/03 07:01:30;;;;;;;20.25;10.85;;;;;;;8.40;92.00;93900.91;5028833;28;20606;-76
2021/10/03 07:03:58;;;;;;;17.60;10.25;;;;;;;8.67;91.98;93890.19;5037980;28;20493;-76
2021/10/03 07:06:25;;;;;;;18.15;10.23;;;;;;;8.75;nan;93895.19;5049253;28;20111;-76
2021/10/03 07:08:52;;;;;;;24.45;11.57;;;;;;;8.94;90.01;93903.28;5048986;28;20102;-77
2021/10/03 07:11:18;;;;;;;18.73;11.10;;;;;;;8.94;88.81;93891.25;5048826;28;20052;-77
2021/10/03 07:13:45;;;;;;;19.55;11.05;;;;;;;9.07;86.66;93902.59;5049131;28;21005;-77
2021/10/03 07:16:12;;;;;;;25.10;12.05;;;;;;;9.30;88.41;93901.66;5048651;28;20045;-77
2021/10/03 07:18:39;;;;;;;29.00;14.45;;;;;;;9.47;87.48;93895.28;5049050;28;20401;-77
2021/10/03 07:21:07;;;;;;;23.95;13.10;;;;;;;9.47;86.91;93910.66;5045047;28;20096;-77
2021/10/03 07:23:34;;;;;;;38.72;20.08;;;;;;;9.62;86.11;93899.50;5028895;28;20401;-77
2021/10/03 07:26:01;;;;;;;36.58;18.58;;;;;;;9.88;84.98;93904.06;5031049;28;20064;-77
2021/10/03 07:28:27;;;;;;;42.92;20.98;;;;;;;9.92;84.32;93893.41;5033024;28;20067;-77
2021/10/03 07:30:54;;;;;;;35.55;18.10;;;;;;;10.21;84.03;93912.91;5032792;28;20046;-77
2021/10/03 07:33:22;;;;;;;30.98;16.52;;;;;;;10.23;82.43;93890.41;5032848;28;20057;-77
2021/10/03 07:35:49;;;;;;;25.30;12.68;;;;;;;10.48;83.29;93904.56;5032894;28;20046;-77
2021/10/03 07:38:17;;;;;;;24.20;11.40;;;;;;;10.67;81.80;93914.16;5032897;28;20045;-78
2021/10/03 07:40:45;;;;;;;16.85;9.40;;;;;;;10.95;81.66;93915.00;5032505;28;20049;-77
2021/10/03 07:43:11;;;;;;;17.80;9.18;;;;;;;11.18;81.00;93924.94;5032214;28;20049;-77
2021/10/03 07:45:38;;;;;;;18.30;7.80;;;;;;;11.24;79.37;93907.94;5032358;28;20129;-78
2021/10/03 07:48:05;;;;;;;12.73;7.55;;;;;;;11.45;79.00;93914.69;5032739;28;20042;-77
2021/10/03 07:50:32;;;;;;;11.10;6.50;;;;;;;11.67;78.23;93926.56;5032331;28;20540;-77
2021/10/03 07:52:59;;;;;;;12.93;6.72;;;;;;;11.76;77.99;93921.00;5032536;28;20056;-77
2021/10/03 07:55:29;;;;;;;14.43;6.72;;;;;;;12.03;76.70;93933.06;5032205;28;20099;-77
2021/10/03 07:57:58;;;;;;;11.90;7.28;;;;;;;12.12;75.85;93931.09;5032182;28;20519;-78
2021/10/03 08:00:26;;;;;;;13.50;6.13;;;;;;;12.21;75.09;93929.13;5032195;28;20085;-77
2021/10/03 08:02:53;;;;;;;10.55;6.15;;;;;;;12.39;73.13;93931.84;5032175;28;20107;-78
2021/10/03 08:05:20;;;;;;;14.77;7.35;;;;;;;12.24;74.70;93929.50;5032227;28;20099;-77
2021/10/03 08:07:46;;;;;;;10.68;7.18;;;;;;;12.64;74.13;93935.53;5032205;28;20049;-77
2021/10/03 08:10:13;;;;;;;17.30;6.93;;;;;;;12.83;73.30;93916.59;5031803;28;20053;-77
2021/10/03 08:12:41;;;;;;;11.48;6.95;;;;;;;12.96;73.04;93917.53;5031866;28;20116;-77
2021/10/03 08:15:09;;;;;;;15.82;7.20;;;;;;;13.20;71.75;93920.38;5032140;28;20057;-78
2021/10/03 08:17:36;;;;;;;11.88;5.93;;;;;;;13.20;71.40;93923.75;5031934;28;20492;-77
2021/10/03 08:20:04;;;;;;;9.07;4.93;;;;;;;13.13;70.20;93925.56;5050397;28;20041;-77
2021/10/03 08:22:31;;;;;;;11.55;5.63;;;;;;;13.22;71.08;93918.38;5036013;28;20061;-78
2021/10/03 08:24:58;;;;;;;7.70;5.30;;;;;;;13.67;71.93;93912.34;5031685;28;20053;-77
2021/10/03 08:27:26;;;;;;;14.10;7.00;;;;;;;14.05;70.02;93918.38;5031630;28;20049;-77
2021/10/03 08:29:54;;;;;;;12.88;5.60;;;;;;;14.39;69.56;93920.59;5031583;28;20049;-76
2021/10/03 08:32:21;;;;;;;8.70;5.35;;;;;;;14.66;68.78;93908.19;5031543;28;20963;-77
2021/10/03 08:34:48;;;;;;;11.57;5.22;;;;;;;14.81;64.09;93909.59;5031755;28;20049;-77
2021/10/03 08:37:16;;;;;;;10.43;4.53;;;;;;;15.04;63.57;93908.16;5049333;28;20479;-77
2021/10/03 08:39:43;;;;;;;9.73;4.53;;;;;;;15.27;65.04;93914.41;5049853;28;20059;-78
2021/10/03 08:42:10;;;;;;;9.50;4.72;;;;;;;15.58;64.10;93907.34;5049812;28;20049;-77
2021/10/03 08:44:38;;;;;;;9.77;4.97;;;;;;;15.78;61.29;93909.63;5050329;28;20074;-78
2021/10/03 08:47:07;;;;;;;9.18;5.63;;;;;;;16.06;63.22;93910.00;5049383;28;20060;-77
2021/10/03 08:49:34;;;;;;;11.27;5.43;;;;;;;16.21;62.74;93887.00;5049951;28;20045;-77
2021/10/03 08:52:00;;;;;;;9.38;4.68;;;;;;;16.36;62.51;93912.47;5044575;28;20049;-77
2021/10/03 08:54:27;;;;;;;17.33;5.93;;;;;;;16.58;60.56;93911.84;5050993;28;20045;-78
2021/10/03 08:56:56;;;;;;;7.88;4.50;;;;;;;16.43;58.63;93902.75;5050441;28;20136;-77
2021/10/03 08:59:25;;;;;;;10.20;5.38;;;;;;;16.04;60.76;93907.63;5049791;28;20059;-77
2021/10/03 09:01:53;;;;;;;6.82;4.63;;;;;;;16.19;60.13;93901.22;5044726;28;20092;-77
2021/10/03 09:04:29;;;;;;;12.43;4.72;;;;;;;16.37;60.84;93892.50;5047884;28;20044;-77
2021/10/03 09:07:06;;;;;;;7.68;3.47;;;;;;;16.39;56.29;93904.22;5036767;28;20123;-78
2021/10/03 09:09:57;;;;;;;8.30;4.95;;;;;;;16.85;59.87;93889.78;5049753;28;20044;-77
2021/10/03 09:12:27;;;;;;;12.70;8.10;;;;;;;17.00;57.36;93877.06;5046929;28;20587;-78
2021/10/03 09:14:55;;;;;;;10.50;4.47;;;;;;;17.26;54.94;93890.50;5044484;28;20067;-77
2021/10/03 09:17:22;;;;;;;9.20;3.70;;;;;;;16.65;57.35;93890.97;5045729;28;20053;-77
2021/10/03 09:20:12;;;;;;;7.22;3.70;;;;;;;16.39;57.49;93880.09;5046674;28;20091;-78
2021/10/03 09:22:58;;;;;;;4.97;3.38;;;;;;;16.08;59.09;93888.03;5037833;28;20203;-78
2021/10/03 09:25:39;;;;;;;5.35;3.65;;;;;;;15.61;57.69;93881.03;5044875;28;20128;-78
2021/10/03 09:28:09;;;;;;;7.22;3.55;;;;;;;16.03;60.30;93886.09;5050525;28;20405;-78
2021/10/03 09:30:37;;;;;;;8.10;3.72;;;;;;;15.46;57.62;93853.75;5050398;28;20049;-78
2021/10/03 09:33:04;;;;;;;8.05;3.95;;;;;;;15.87;59.22;93866.03;5050653;28;20095;-77
2021/10/03 09:35:34;;;;;;;6.20;3.33;;;;;;;16.37;56.53;93882.91;5050528;28;20053;-77
2021/10/03 09:38:10;;;;;;;6.07;3.05;;;;;;;16.45;55.20;93876.59;5050239;28;20136;-77
2021/10/03 09:40:36;;;;;;;6.53;4.00;;;;;;;16.74;58.39;93874.03;5050533;28;20045;-77
2021/10/03 09:43:03;;;;;;;5.80;3.40;;;;;;;17.23;53.57;93875.41;5050284;28;20083;-77
2021/10/03 09:45:31;;;;;;;7.18;3.40;;;;;;;17.47;53.08;93870.88;5041828;28;20165;-78
2021/10/03 09:48:00;;;;;;;6.60;3.40;;;;;;;17.54;53.73;93870.69;5029922;28;20053;-78
2021/10/03 09:50:27;;;;;;;6.40;3.20;;;;;;;17.22;54.27;93851.25;5040078;28;21447;-78
2021/10/03 09:52:56;;;;;;;6.90;3.58;;;;;;;17.64;54.72;93864.88;5050082;28;20048;-78
2021/10/03 09:55:26;;;;;;;6.30;3.10;;;;;;;17.49;51.95;93862.81;5047456;28;20041;-79
2021/10/03 09:57:54;;;;;;;10.50;3.25;;;;;;;17.66;51.82;93868.03;5040215;28;20091;-78
2021/10/03 10:00:23;;;;;;;7.00;3.55;;;;;;;16.54;53.69;93862.22;5038465;28;20493;-78
2021/10/03 10:02:51;;;;;;;8.90;3.65;;;;;;;17.04;54.81;93867.03;5033501;28;20053;-78
2021/10/03 10:05:20;;;;;;;6.25;3.22;;;;;;;16.66;51.00;93825.13;5030167;28;20045;-78
2021/10/03 10:07:48;;;;;;;6.70;3.20;;;;;;;17.03;50.26;93855.09;5029664;28;20136;-78
2021/10/03 10:10:16;;;;;;;6.50;3.20;;;;;;;17.19;49.06;93848.34;5029818;28;20045;-78
2021/10/03 10:12:48;;;;;;;7.10;3.38;;;;;;;17.57;51.89;93839.06;5030086;28;20103;-78
2021/10/03 10:15:15;;;;;;;6.43;4.63;;;;;;;18.01;52.41;93824.56;5029819;28;20052;-77
2021/10/03 10:17:42;;;;;;;9.27;5.47;;;;;;;18.28;48.83;93836.88;5029328;28;20501;-78
2021/10/03 10:20:34;;;;;;;7.43;4.30;;;;;;;18.02;47.57;93834.72;5029902;28;20053;-78
2021/10/03 10:23:03;;;;;;;6.20;4.20;;;;;;;17.69;48.01;93825.19;5033083;28;20071;-78
2021/10/03 10:25:43;;;;;;;6.63;3.10;;;;;;;17.79;48.70;93820.13;5049304;28;20048;-78
2021/10/03 10:28:12;;;;;;;4.60;3.20;;;;;;;18.07;46.52;93813.25;5049452;28;20048;-78
2021/10/03 10:31:08;;;;;;;5.10;2.60;;;;;;;18.29;44.68;93810.63;5049271;28;20412;-78
2021/10/03 10:34:05;;;;;;;5.93;2.83;;;;;;;18.24;42.16;93807.97;5042501;28;20049;-78
2021/10/03 10:36:35;;;;;;;9.40;4.10;;;;;;;18.55;40.14;93789.31;5049192;28;20099;-78
2021/10/03 10:39:24;;;;;;;3.55;2.00;;;;;;;18.12;38.30;93799.50;5049474;28;20041;-79
2021/10/03 10:41:55;;;;;;;5.20;2.67;;;;;;;17.83;39.97;93792.63;5049108;28;20114;-79
2021/10/03 10:44:33;;;;;;;4.90;2.70;;;;;;;17.44;40.15;93779.63;5049392;28;20044;-79
2021/10/03 10:47:01;;;;;;;3.78;2.53;;;;;;;17.58;41.00;93790.47;5049533;28;20459;-78
2021/10/03 10:49:37;;;;;;;8.52;3.40;;;;;;;18.16;43.53;93785.78;5033520;28;20603;-78
2021/10/03 10:52:32;;;;;;;4.07;2.20;;;;;;;18.56;40.04;93780.47;5029421;28;20386;-79
2021/10/03 10:55:34;;;;;;;5.60;2.80;;;;;;;18.89;40.49;93780.53;5029427;28;20390;-79
2021/10/03 10:58:19;;;;;;;25.15;22.00;;;;;;;19.46;43.48;93773.16;5029037;28;20045;-79
2021/10/03 11:01:14;;;;;;;6.70;3.28;;;;;;;19.78;40.67;93767.06;5030926;28;20049;-79
2021/10/03 11:03:55;;;;;;;5.28;2.80;;;;;;;20.24;39.32;93773.53;5033026;28;20041;-79
2021/10/03 11:07:01;;;;;;;6.63;3.38;;;;;;;20.66;38.91;93777.84;5033514;28;20045;-78
2021/10/03 11:09:46;;;;;;;4.82;3.25;;;;;;;20.91;35.68;93765.06;5032241;28;20084;-79
2021/10/03 11:12:13;;;;;;;4.55;2.42;;;;;;;21.02;35.87;93763.25;5020209;28;20063;-79
2021/10/03 11:14:42;;;;;;;4.95;2.85;;;;;;;21.07;35.43;93753.56;5032862;28;20053;-79
2021/10/03 11:17:13;;;;;;;4.68;2.08;;;;;;;21.23;34.88;93743.91;5032713;28;20057;-78
2021/10/03 11:20:02;;;;;;;6.22;2.55;;;;;;;21.45;31.40;93748.06;5033138;28;20056;-79
2021/10/03 11:22:30;;;;;;;10.18;2.72;;;;;;;21.55;32.25;93743.84;5047642;28;20148;-79
2021/10/03 11:24:58;;;;;;;5.88;2.22;;;;;;;21.73;33.84;93738.09;5052651;28;20516;-79
2021/10/03 11:27:27;;;;;;;5.13;2.08;;;;;;;21.89;32.43;93738.81;5052846;28;20102;-79
2021/10/03 11:29:57;;;;;;;7.65;2.47;;;;;;;21.97;33.10;93728.84;5052743;28;20053;-79
2021/10/03 11:32:27;;;;;;;7.57;2.15;;;;;;;22.16;32.15;93732.41;5052937;28;20056;-79
2021/10/03 11:34:55;;;;;;;5.28;1.77;;;;;;;;;;5052208;28;20075;-79
2021/10/03 11:37:26;;;;;;;4.13;1.70;;;;;;;22.46;31.49;93729.13;5052528;28;20053;-80
2021/10/03 11:39:55;;;;;;;6.53;2.20;;;;;;;22.41;30.20;93719.47;5052583;28;20049;-79
2021/10/03 11:42:32;;;;;;;4.35;2.17;;;;;;;22.45;29.19;93723.09;5052657;28;20052;-79